Time;durP1;ratioP1;P1;durP2;ratioP2;P2;SDS_P1;SDS_P2;PMS_P1;PMS_P2;Temp;Humidity;BMP_temperature;BMP_pressure;BME280_temperature;BME280_humidity;BME280_pressure;Samples;Min_cycle;Max_cycle;Signal;HPM_P1;HPM_P2
2023/12/10 00:00:30;;;;;;;8.77;2.10;;;10.30;99.90;;;10.63;89.85;99357.06;4875549;28;24455;-63
2023/12/10 00:02:53;;;;;;;14.80;2.70;;;10.40;99.90;;;10.65;88.71;99358.56;4880828;28;25045;-64
2023/12/10 00:05:16;;;;;;;13.43;3.25;;;10.40;99.90;;;10.60;89.50;99363.41;4868692;28;24435;-63
2023/12/10 00:07:38;;;;;;;11.25;2.60;;;10.40;99.90;;;10.59;89.71;99366.13;4878254;28;24458;-64
2023/12/10 00:10:00;;;;;;;7.55;2.42;;;10.30;99.90;;;10.63;89.27;99373.53;4877072;28;25000;-65
2023/12/10 00:12:22;;;;;;;7.80;2.38;;;10.40;99.90;;;10.64;89.40;99372.59;4874278;28;24419;-64
2023/12/10 00:14:52;;;;;;;11.77;2.58;;;10.40;99.90;;;10.67;88.49;99374.06;4877784;28;24429;-64
2023/12/10 00:17:14;;;;;;;13.77;3.10;;;10.50;99.90;;;10.67;88.71;99387.09;4885938;28;24462;-63
2023/12/10 00:19:36;;;;;;;14.60;2.55;;;10.40;99.90;;;10.67;89.54;99389.72;4874659;28;24475;-64
2023/12/10 00:21:58;;;;;;;7.22;2.60;;;10.40;99.90;;;10.64;89.93;99387.41;4878774;28;24431;-65
2023/12/10 00:24:22;;;;;;;10.82;2.30;;;10.40;99.90;;;10.66;89.05;99395.91;4875596;28;24446;-64
2023/12/10 00:26:45;;;;;;;15.75;2.35;;;10.40;99.90;;;10.71;88.98;99402.34;4886003;28;24454;-66
2023/12/10 00:29:07;;;;;;;12.05;2.80;;;10.40;99.90;;;10.72;88.75;99398.78;4877731;28;24427;-64
2023/12/10 00:31:28;;;;;;;10.15;1.80;;;10.50;99.90;;;10.76;87.65;99397.53;4852615;28;24441;-64
2023/12/10 00:33:50;;;;;;;10.60;2.65;;;10.50;99.90;;;10.77;88.36;99406.19;4874205;28;24526;-64
2023/12/10 00:36:15;;;;;;;12.87;2.40;;;10.50;99.90;;;10.73;88.47;99405.63;4880163;28;24452;-63
2023/12/10 00:38:38;;;;;;;7.95;2.00;;;10.50;99.90;;;10.71;88.37;99412.78;4865189;28;24440;-66
2023/12/10 00:41:00;;;;;;;13.95;2.40;;;10.40;99.90;;;10.75;86.84;99408.13;4871370;28;24434;-65
2023/12/10 00:43:22;;;;;;;11.40;2.50;;;10.50;99.90;;;10.74;87.41;99401.25;4869796;28;24521;-65
2023/12/10 00:45:44;;;;;;;10.48;3.47;;;10.50;99.90;;;10.73;86.84;99399.63;4867845;28;24419;-65
2023/12/10 00:48:06;;;;;;;10.17;2.43;;;10.50;99.90;;;10.78;87.18;99411.25;4875969;28;24976;-65
2023/12/10 00:50:28;;;;;;;8.75;2.60;;;10.50;99.90;;;10.82;86.38;99417.84;4865117;28;24992;-64
2023/12/10 00:52:50;;;;;;;8.75;2.30;;;10.60;99.90;;;10.81;85.81;99429.25;4873351;28;24438;-65
2023/12/10 00:55:12;;;;;;;11.55;2.10;;;10.60;99.90;;;10.83;86.60;99427.31;4873629;28;24492;-65
2023/12/10 00:57:34;;;;;;;11.95;2.58;;;10.60;99.90;;;10.78;86.63;99447.78;4879675;28;24798;-64
2023/12/10 00:59:56;;;;;;;10.90;2.00;;;10.60;99.90;;;10.75;85.81;99466.31;4875575;28;24987;-65
2023/12/10 01:02:19;;;;;;;8.85;2.95;;;10.50;99.90;;;10.85;84.45;99472.34;4863760;28;24549;-65
2023/12/10 01:04:41;;;;;;;14.80;3.08;;;10.60;99.90;;;10.87;85.78;99485.25;4866051;28;24478;-65
2023/12/10 01:07:04;;;;;;;13.98;2.63;;;10.60;99.90;;;10.85;84.46;99472.34;4865995;28;24884;-64
2023/12/10 01:09:26;;;;;;;10.10;2.60;;;10.60;99.90;;;10.84;84.01;99485.53;4865425;28;24843;-64
2023/12/10 01:11:47;;;;;;;11.93;2.55;;;10.60;99.90;;;10.84;84.78;99475.91;4876510;28;25132;-63
2023/12/10 01:14:09;;;;;;;8.88;2.60;;;10.60;99.90;;;10.77;84.33;99495.72;4888583;28;24494;-65
2023/12/10 01:16:31;;;;;;;10.95;2.42;;;10.50;99.90;;;10.81;84.31;99499.69;4870602;28;24443;-64
2023/12/10 01:18:53;;;;;;;12.63;3.00;;;10.60;99.90;;;10.80;84.66;99502.41;4854917;28;25065;-65
2023/12/10 01:21:15;;;;;;;14.80;2.85;;;10.60;99.90;;;10.74;84.08;99513.41;4870543;28;24892;-65
2023/12/10 01:23:38;;;;;;;8.75;2.67;;;10.50;99.90;;;10.77;84.69;99516.59;4874018;28;24507;-66
2023/12/10 01:26:00;;;;;;;6.70;1.95;;;10.50;99.90;;;10.80;83.62;99534.56;4873157;28;24521;-66
2023/12/10 01:28:23;;;;;;;13.80;3.17;;;10.60;99.90;;;10.87;83.22;99535.66;4874755;28;25069;-65
2023/12/10 01:30:45;;;;;;;15.98;3.50;;;10.60;99.90;;;10.83;84.09;99521.25;4875324;28;24465;-65
2023/12/10 01:33:07;;;;;;;10.80;3.03;;;10.60;99.90;;;10.87;83.93;99532.22;4863869;28;24446;-63
2023/12/10 01:35:30;;;;;;;8.77;2.50;;;10.60;99.90;;;10.92;82.68;99540.47;4878810;28;24870;-65
2023/12/10 01:37:52;;;;;;;8.03;2.50;;;10.70;99.90;;;10.90;83.63;99537.97;4872441;28;24530;-65
2023/12/10 01:40:15;;;;;;;13.88;3.05;;;10.70;99.90;;;10.91;82.86;99549.25;4866026;28;24439;-65
2023/12/10 01:42:37;;;;;;;11.80;2.70;;;10.60;99.90;;;10.91;82.79;99555.31;4874650;28;20860;-65
2023/12/10 01:44:59;;;;;;;13.95;3.40;;;10.70;99.90;;;10.88;82.96;99560.78;4876563;28;24541;-65
2023/12/10 01:47:21;;;;;;;15.13;3.20;;;10.70;99.90;;;10.97;82.13;99561.75;4871484;28;24894;-65
2023/12/10 01:49:42;;;;;;;12.75;3.15;;;10.70;99.90;;;10.95;82.35;99568.88;4874071;28;24999;-65
2023/12/10 01:52:05;;;;;;;12.27;3.23;;;10.70;99.90;;;10.93;82.42;99568.19;4873104;28;24500;-65
2023/12/10 01:54:27;;;;;;;16.33;3.30;;;10.70;99.90;;;10.90;81.56;99566.69;4860780;28;24567;-65
2023/12/10 01:56:50;;;;;;;15.35;2.85;;;10.70;99.90;;;10.92;81.86;99571.78;4874301;28;24435;-65
2023/12/10 01:59:27;;;;;;;8.90;2.25;;;10.70;99.90;;;10.94;81.52;99581.09;4875173;28;24433;-65
2023/12/10 02:01:49;;;;;;;14.15;2.80;;;10.70;99.90;;;10.87;82.67;99580.03;4869934;28;25019;-65
2023/12/10 02:04:11;;;;;;;13.98;3.22;;;10.60;99.90;;;10.87;82.49;99589.63;4872131;28;24433;-65
2023/12/10 02:06:33;;;;;;;14.10;1.70;;;10.60;99.90;;;10.94;80.55;99598.56;4841525;28;24528;-65
2023/12/10 02:08:55;;;;;;;10.82;2.40;;;10.70;99.90;;;11.02;80.63;99621.38;4869969;28;24447;-63
2023/12/10 02:11:17;;;;;;;6.43;2.20;;;10.70;99.90;;;11.05;80.70;99639.38;4873786;28;24514;-65
2023/12/10 02:13:39;;;;;;;6.40;1.30;;;10.70;99.90;;;11.00;81.58;99637.16;4875055;28;24473;-65
2023/12/10 02:16:01;;;;;;;5.80;1.90;;;10.80;99.90;;;10.94;83.55;99637.72;4873927;28;24551;-64
2023/12/10 02:18:23;;;;;;;6.75;1.30;;;10.70;99.90;;;10.77;83.31;99623.56;4876111;28;25000;-65
2023/12/10 02:20:47;;;;;;;3.80;1.00;;;10.60;99.90;;;10.57;85.02;99624.47;4881029;28;24521;-65
2023/12/10 02:23:47;;;;;;;5.00;1.30;;;10.40;99.90;;;10.40;85.89;99643.38;4869685;28;24625;-65
2023/12/10 02:26:09;;;;;;;5.80;1.00;;;10.20;99.90;;;10.31;86.16;99644.16;4858582;28;24960;-65
2023/12/10 02:28:32;;;;;;;5.65;1.40;;;10.10;99.90;;;10.19;86.75;99644.41;4876611;28;24494;-65
2023/12/10 02:30:54;;;;;;;2.80;1.00;;;10.00;99.90;;;10.21;86.34;99664.16;4877431;28;24451;-65
2023/12/10 02:33:16;;;;;;;3.60;1.25;;;10.00;99.90;;;10.12;87.04;99657.97;4872190;28;24481;-64
2023/12/10 02:35:39;;;;;;;2.67;1.13;;;9.90;99.90;;;10.07;86.09;99659.28;4881113;28;24423;-64
2023/12/10 02:38:03;;;;;;;4.53;1.20;;;9.90;99.90;;;10.12;84.47;99660.56;4874991;28;24485;-64
2023/12/10 02:40:25;;;;;;;2.50;1.30;;;9.90;99.90;;;10.04;85.79;99672.56;4869498;28;20782;-65
2023/12/10 02:42:48;;;;;;;7.20;1.10;;;9.80;99.90;;;9.99;84.17;99679.94;4876919;28;24431;-64
2023/12/10 02:45:10;;;;;;;3.67;1.10;;;9.80;99.90;;;9.94;84.29;99682.97;4880062;28;24564;-64
2023/12/10 02:47:32;;;;;;;2.80;1.10;;;9.80;99.90;;;9.97;84.53;99687.06;4876610;28;24497;-64
2023/12/10 02:49:54;;;;;;;4.60;1.00;;;9.80;99.90;;;9.87;84.32;99684.41;4877846;28;24431;-64
2023/12/10 02:52:20;;;;;;;2.35;1.10;;;9.70;99.90;;;9.81;84.52;99677.13;4876642;28;24439;-64
2023/12/10 02:54:42;;;;;;;5.55;1.20;;;9.60;99.90;;;9.81;85.07;99690.16;4880231;28;25079;-64
2023/12/10 02:57:04;;;;;;;3.40;1.10;;;9.60;99.90;;;9.82;84.61;99694.38;4877376;28;24449;-64
2023/12/10 02:59:26;;;;;;;2.50;1.00;;;9.60;99.90;;;9.76;85.20;99691.47;4885823;28;24526;-63
2023/12/10 03:01:49;;;;;;;2.58;1.10;;;9.50;99.90;;;9.69;85.86;99698.16;4867942;28;24520;-64
2023/12/10 03:04:11;;;;;;;3.05;1.20;;;9.50;99.90;;;9.62;86.14;99687.41;4879089;28;24480;-64
2023/12/10 03:06:33;;;;;;;1.33;0.90;;;9.40;99.90;;;9.57;86.61;99699.16;4881184;28;24454;-64
2023/12/10 03:08:55;;;;;;;3.23;1.30;;;9.40;99.90;;;9.55;86.95;99691.47;4878692;28;24459;-64
2023/12/10 03:11:17;;;;;;;2.22;1.10;;;9.30;99.90;;;9.56;87.57;99687.91;4871303;28;24462;-64
2023/12/10 03:13:39;;;;;;;4.47;1.30;;;9.30;99.90;;;9.60;87.91;99706.72;4883798;28;24537;-64
2023/12/10 03:16:01;;;;;;;5.45;1.50;;;9.40;99.90;;;9.58;88.88;99699.03;4877974;28;24451;-65
2023/12/10 03:18:22;;;;;;;4.53;1.60;;;9.30;99.90;;;9.53;89.71;99714.22;4867451;28;24450;-63
2023/12/10 03:20:45;;;;;;;6.90;1.30;;;9.30;99.90;;;9.59;89.78;99733.69;4876129;28;24459;-64
2023/12/10 03:23:07;;;;;;;5.93;1.33;;;9.40;99.90;;;9.61;89.68;99718.78;4874800;28;25050;-64
2023/12/10 03:25:28;;;;;;;8.17;2.00;;;9.40;99.90;;;9.62;89.84;99721.28;4878713;28;24455;-64
2023/12/10 03:27:50;;;;;;;2.90;1.30;;;9.40;99.90;;;9.67;90.19;99733.91;4874998;28;24542;-65
2023/12/10 03:30:12;;;;;;;2.17;1.10;;;9.40;99.90;;;9.70;89.22;99746.66;4875835;28;24446;-64
2023/12/10 03:32:34;;;;;;;9.27;1.83;;;9.40;99.90;;;9.72;88.38;99745.59;4865369;28;24531;-64
2023/12/10 03:34:56;;;;;;;4.68;1.23;;;9.50;99.90;;;9.69;88.26;99740.63;4875663;28;24455;-64
2023/12/10 03:37:18;;;;;;;2.58;1.10;;;9.40;99.90;;;9.66;87.80;99750.50;4874876;28;24435;-65
2023/12/10 03:39:40;;;;;;;3.17;1.10;;;9.40;99.90;;;9.58;87.70;99747.69;4873783;28;24505;-64
2023/12/10 03:42:03;;;;;;;2.70;1.20;;;9.30;99.90;;;9.55;87.78;99755.75;4867404;28;24478;-64
2023/12/10 03:44:25;;;;;;;3.78;1.20;;;9.30;99.90;;;9.48;86.80;99754.56;4872178;28;24453;-64
2023/12/10 03:46:46;;;;;;;3.90;1.20;;;9.20;99.90;;;9.45;86.73;99754.84;4874688;28;24438;-63
2023/12/10 03:49:08;;;;;;;3.30;1.10;;;9.20;99.90;;;9.43;87.33;99754.97;4862665;28;24456;-65
2023/12/10 03:51:30;;;;;;;3.78;1.20;;;9.20;99.90;;;9.43;87.11;99764.56;4874650;28;24481;-64
2023/12/10 03:53:53;;;;;;;3.47;1.30;;;9.20;99.90;;;9.44;87.26;99774.84;4875812;28;24501;-64
2023/12/10 03:56:15;;;;;;;4.50;1.10;;;9.10;99.90;;;9.40;87.99;99765.63;4868070;28;24458;-64
2023/12/10 03:58:37;;;;;;;1.92;1.10;;;9.20;99.90;;;9.43;88.04;99759.34;4879581;28;24462;-64
2023/12/10 04:00:59;;;;;;;3.85;1.20;;;9.20;99.90;;;9.41;88.67;99776.88;4876597;28;24435;-64
2023/12/10 04:03:21;;;;;;;3.33;1.13;;;9.20;99.90;;;9.38;89.64;99767.53;4867748;28;24458;-64
2023/12/10 04:05:43;;;;;;;5.23;1.20;;;9.10;99.90;;;9.39;89.94;99777.81;4878668;28;24507;-64
2023/12/10 04:08:05;;;;;;;5.07;1.60;;;9.20;99.90;;;9.48;90.20;99788.41;4874314;28;24509;-64
2023/12/10 04:10:27;;;;;;;6.25;1.92;;;9.20;99.90;;;9.49;90.93;99775.31;4874534;28;24427;-64
2023/12/10 04:12:49;;;;;;;5.97;1.60;;;9.20;99.90;;;9.50;90.45;99786.56;4866926;28;24446;-64
2023/12/10 04:15:11;;;;;;;4.57;1.80;;;9.30;99.90;;;9.53;90.68;99791.50;4880003;28;24464;-63
2023/12/10 04:17:33;;;;;;;4.80;1.63;;;9.30;99.90;;;9.53;90.55;99792.31;4875565;28;24450;-64
2023/12/10 04:19:55;;;;;;;11.75;1.70;;;9.30;99.90;;;9.53;90.38;99794.94;4883481;28;24426;-65
2023/12/10 04:22:17;;;;;;;5.47;2.10;;;9.30;99.90;;;9.52;90.02;99772.44;4866943;28;24434;-64
2023/12/10 04:24:39;;;;;;;6.90;1.80;;;9.30;99.90;;;9.51;90.80;99799.44;4875730;28;24425;-64
2023/12/10 04:27:01;;;;;;;8.63;1.80;;;9.30;99.90;;;9.53;90.12;99814.94;4867614;28;24915;-64
2023/12/10 04:29:23;;;;;;;5.22;2.00;;;9.30;99.90;;;9.52;89.92;99818.50;4875875;28;24614;-64
2023/12/10 04:31:45;;;;;;;3.42;1.30;;;9.30;99.90;;;9.62;89.04;99814.19;4872718;28;24520;-65
2023/12/10 04:34:07;;;;;;;6.00;1.60;;;9.40;99.90;;;9.66;88.64;99820.81;4875358;28;24474;-64
2023/12/10 04:36:29;;;;;;;10.18;1.90;;;9.40;99.90;;;9.68;88.30;99816.31;4874072;28;24678;-64
2023/12/10 04:38:51;;;;;;;7.75;1.80;;;9.40;99.90;;;9.68;88.25;99811.94;4861225;28;24505;-63
2023/12/10 04:41:13;;;;;;;8.10;1.63;;;9.40;99.90;;;9.68;87.74;99814.53;4867638;28;24438;-64
2023/12/10 04:43:36;;;;;;;11.05;1.90;;;9.40;99.90;;;9.69;87.74;99815.38;4873926;28;24538;-63
2023/12/10 04:45:58;;;;;;;6.95;1.85;;;9.40;99.90;;;9.68;87.39;99805.88;4875188;28;24494;-64
2023/12/10 04:48:21;;;;;;;7.40;2.30;;;9.40;99.90;;;9.68;87.53;99805.88;4864824;28;24941;-64
2023/12/10 04:50:43;;;;;;;10.85;2.67;;;9.40;99.90;;;9.67;86.26;99812.88;4881036;28;24435;-64
2023/12/10 04:53:05;;;;;;;7.73;2.20;;;9.50;99.90;;;9.70;86.38;99819.59;4872843;28;24538;-64
2023/12/10 04:55:27;;;;;;;7.10;2.03;;;9.50;99.90;;;9.69;85.79;99812.75;4874927;28;24969;-64
2023/12/10 04:57:49;;;;;;;11.38;2.40;;;9.50;99.90;;;9.70;85.58;99836.06;4867850;28;25031;-63
2023/12/10 05:00:11;;;;;;;6.88;1.90;;;9.50;99.90;;;9.74;85.04;99815.81;4869158;28;24804;-65
2023/12/10 05:02:33;;;;;;;7.97;1.90;;;9.50;99.90;;;9.74;84.11;99819.25;4869219;28;24551;-64
2023/12/10 05:04:55;;;;;;;7.10;1.45;;;9.50;99.90;;;9.85;82.79;99839.22;4872222;28;24427;-64
2023/12/10 05:07:18;;;;;;;5.97;1.85;;;9.60;99.90;;;9.92;82.44;99841.19;4865775;28;24948;-64
2023/12/10 05:09:41;;;;;;;12.50;2.38;;;9.70;99.90;;;9.92;82.66;99835.16;4877550;28;24447;-64
2023/12/10 05:12:04;;;;;;;8.00;2.40;;;9.70;99.90;;;9.91;82.94;99838.69;4875577;28;24462;-65
2023/12/10 05:14:26;;;;;;;6.90;2.15;;;9.70;99.90;;;9.87;83.26;99847.72;4873521;28;24467;-64
2023/12/10 05:16:47;;;;;;;7.53;1.90;;;9.60;99.90;;;9.85;83.17;99844.41;4874429;28;24868;-63
2023/12/10 05:19:10;;;;;;;9.32;2.17;;;9.60;99.90;;;9.86;83.59;99852.09;4874355;28;24415;-63
2023/12/10 05:21:33;;;;;;;7.40;2.05;;;9.70;99.90;;;9.83;83.24;99851.53;4876546;28;24451;-64
2023/12/10 05:23:55;;;;;;;10.20;2.20;;;9.70;99.90;;;9.78;83.77;99853.66;4873460;28;25158;-64
2023/12/10 05:26:17;;;;;;;9.15;2.30;;;9.60;99.90;;;9.80;83.38;99856.97;4869665;28;25061;-64
2023/12/10 05:28:39;;;;;;;5.80;2.10;;;9.60;99.90;;;9.82;83.10;99866.34;4869531;28;24546;-63
2023/12/10 05:31:01;;;;;;;6.25;1.90;;;9.60;99.90;;;9.81;83.34;99856.88;4867498;28;24518;-64
2023/12/10 05:33:23;;;;;;;7.40;1.80;;;9.60;99.90;;;9.74;83.25;99878.31;4871917;28;24446;-63
2023/12/10 05:35:45;;;;;;;7.82;1.88;;;9.60;99.90;;;9.75;83.98;99885.19;4868793;28;25034;-64
2023/12/10 05:38:09;;;;;;;9.53;1.90;;;9.50;99.90;;;9.79;83.25;99886.59;4873211;28;24995;-64
2023/12/10 05:40:31;;;;;;;6.57;1.88;;;9.50;99.90;;;9.82;83.64;99888.94;4872449;28;24518;-63
2023/12/10 05:42:53;;;;;;;8.73;1.92;;;9.60;99.90;;;9.81;83.02;99890.75;4873783;28;24524;-63
2023/12/10 05:45:15;;;;;;;11.88;2.47;;;9.60;99.90;;;9.86;83.02;99896.41;4868383;28;24454;-64
2023/12/10 05:47:37;;;;;;;9.77;1.75;;;9.60;99.90;;;9.88;82.89;99901.50;4873178;28;24924;-64
2023/12/10 05:49:59;;;;;;;8.30;2.27;;;9.60;99.90;;;9.90;82.39;99908.22;4875807;28;24427;-64
2023/12/10 05:52:21;;;;;;;8.23;2.60;;;9.70;99.90;;;9.94;82.41;99916.63;4876259;28;24423;-63
2023/12/10 05:54:43;;;;;;;8.55;1.95;;;9.70;99.90;;;9.95;82.12;99913.06;4877970;28;24499;-64
2023/12/10 05:57:05;;;;;;;6.05;1.50;;;9.70;99.90;;;9.90;82.44;99917.84;4884589;28;24462;-64
2023/12/10 05:59:27;;;;;;;6.80;1.73;;;9.70;99.90;;;9.94;82.56;99914.88;4876636;28;24481;-63
2023/12/10 06:01:49;;;;;;;11.40;2.20;;;9.70;99.90;;;10.06;81.42;99931.28;4856812;28;25004;-64
2023/12/10 06:04:11;;;;;;;10.47;2.13;;;9.80;99.90;;;10.07;81.22;99928.53;4876783;28;24446;-64
2023/12/10 06:06:33;;;;;;;4.35;1.90;;;9.80;99.90;;;10.07;80.65;99932.94;4879097;28;24459;-64
2023/12/10 06:08:55;;;;;;;7.72;1.90;;;9.80;99.90;;;10.06;80.93;99939.94;4876588;28;24521;-64
2023/12/10 06:11:17;;;;;;;9.23;2.30;;;9.80;99.90;;;10.05;81.20;99940.06;4876164;28;24497;-64
2023/12/10 06:13:39;;;;;;;6.60;2.10;;;9.80;99.90;;;10.09;81.20;99947.47;4876936;28;24423;-64
2023/12/10 06:16:01;;;;;;;6.10;1.55;;;9.80;99.90;;;10.07;81.30;99948.59;4881912;28;24453;-64
2023/12/10 06:18:23;;;;;;;10.00;1.70;;;9.80;99.90;;;10.17;80.18;99944.31;4874918;28;24447;-64
2023/12/10 06:20:46;;;;;;;5.17;1.20;;;9.90;99.90;;;10.21;79.16;99956.13;4876722;28;25045;-64
2023/12/10 06:23:08;;;;;;;7.68;1.90;;;10.00;99.90;;;10.26;79.40;99963.59;4874318;28;25285;-65
2023/12/10 06:25:30;;;;;;;8.18;1.90;;;10.00;99.90;;;10.25;79.68;99962.75;4883250;28;24431;-64
2023/12/10 06:27:54;;;;;;;12.95;2.05;;;10.00;99.90;;;10.18;79.04;99960.78;4875935;28;24431;-64
2023/12/10 06:30:15;;;;;;;6.57;1.73;;;10.00;99.90;;;10.23;78.99;99964.66;4877983;28;25035;-64
2023/12/10 06:32:37;;;;;;;5.68;1.80;;;10.00;99.90;;;10.25;78.69;99967.13;4871363;28;24446;-64
2023/12/10 06:34:59;;;;;;;7.25;1.80;;;10.00;99.90;;;10.22;79.74;99968.25;4877954;28;24443;-64
2023/12/10 06:37:21;;;;;;;5.35;1.83;;;10.00;99.90;;;10.24;79.81;99963.72;4877884;28;24514;-64
2023/12/10 06:39:43;;;;;;;9.80;1.80;;;10.00;99.90;;;10.18;79.55;99972.00;4875684;28;24533;-64
2023/12/10 06:42:05;;;;;;;9.00;1.55;;;9.90;99.90;;;10.13;80.04;99979.41;4876789;28;24459;-64
2023/12/10 06:44:27;;;;;;;6.45;1.83;;;9.90;99.90;;;10.07;79.30;99974.66;4877818;28;24556;-64
2023/12/10 06:46:49;;;;;;;6.93;1.80;;;9.80;99.90;;;10.10;79.53;99983.06;4875755;28;24544;-63
2023/12/10 06:49:11;;;;;;;4.03;1.20;;;9.90;99.90;;;10.14;79.26;99989.69;4874254;28;24836;-63
2023/12/10 06:51:33;;;;;;;6.30;1.90;;;10.00;99.90;;;10.17;78.61;99986.03;4871443;28;24543;-64
2023/12/10 06:53:55;;;;;;;5.13;1.40;;;9.90;99.90;;;10.17;78.84;99990.41;4883311;28;24442;-63
2023/12/10 06:56:17;;;;;;;4.90;1.60;;;9.90;99.90;;;10.14;78.01;99988.84;4866670;28;24916;-65
2023/12/10 06:58:39;;;;;;;8.32;1.80;;;9.90;99.90;;;10.12;77.82;99993.38;4876723;28;24524;-65
2023/12/10 07:01:05;;;;;;;8.20;2.40;;;9.90;99.90;;;10.14;78.35;99991.47;4874619;28;24972;-63
2023/12/10 07:03:27;;;;;;;5.15;1.40;;;9.90;99.90;;;10.16;79.00;99997.38;4876190;28;24538;-65
2023/12/10 07:05:49;;;;;;;7.05;2.30;;;9.90;99.90;;;10.19;78.32;100004.97;4877151;28;24454;-65
2023/12/10 07:08:11;;;;;;;9.05;2.30;;;9.90;99.90;;;10.18;79.33;100000.69;4883975;28;24475;-64
2023/12/10 07:10:35;;;;;;;10.32;3.00;;;9.90;99.90;;;10.20;78.21;100005.81;4876269;28;24431;-65
2023/12/10 07:12:58;;;;;;;9.30;2.00;;;9.90;99.90;;;10.22;78.10;100014.31;4879829;28;24439;-65
2023/12/10 07:15:20;;;;;;;11.80;3.72;;;9.90;99.90;;;10.24;77.78;100010.66;4875219;28;24429;-64
2023/12/10 07:17:42;;;;;;;8.48;1.85;;;10.00;99.90;;;10.29;77.33;100008.50;4879932;28;24449;-64
2023/12/10 07:20:05;;;;;;;7.20;1.97;;;10.00;99.90;;;10.28;77.94;100022.50;4876768;28;24503;-64
2023/12/10 07:22:27;;;;;;;6.80;1.40;;;10.00;99.90;;;10.31;77.40;100024.84;4874949;28;24542;-65
2023/12/10 07:24:50;;;;;;;6.10;1.50;;;10.10;99.90;;;10.39;76.97;100027.66;4875754;28;24805;-65
2023/12/10 07:27:12;;;;;;;8.23;1.80;;;10.10;99.90;;;10.40;76.70;100034.53;4874378;28;24510;-65
2023/12/10 07:29:34;;;;;;;6.82;1.85;;;10.10;99.90;;;10.41;77.30;100035.38;4880555;28;24457;-64
2023/12/10 07:31:56;;;;;;;5.20;1.92;;;10.10;99.90;;;10.39;77.49;100051.13;4875944;28;24443;-65
2023/12/10 07:34:17;;;;;;;3.95;1.48;;;10.10;99.90;;;10.40;77.22;100057.16;4867011;28;24442;-64
2023/12/10 07:36:39;;;;;;;8.32;2.00;;;10.10;99.90;;;10.35;77.13;100060.13;4878486;28;24435;-65
2023/12/10 07:39:02;;;;;;;8.13;1.90;;;10.10;99.90;;;10.23;78.04;100053.31;4869315;28;24450;-64
2023/12/10 07:41:24;;;;;;;6.32;1.75;;;10.00;99.90;;;10.23;77.96;100052.47;4881300;28;24520;-64
2023/12/10 07:43:46;;;;;;;7.35;1.90;;;10.00;99.90;;;10.25;78.09;100055.78;4868282;28;24454;-64
2023/12/10 07:46:08;;;;;;;6.60;2.00;;;10.00;99.90;;;10.31;78.13;100063.94;4874959;28;24489;-64
2023/12/10 07:48:30;;;;;;;3.22;1.48;;;10.00;99.90;;;10.37;78.33;100062.66;4867854;28;24451;-65
2023/12/10 07:50:53;;;;;;;8.00;2.17;;;10.00;99.90;;;10.42;77.83;100069.13;4876594;28;24473;-65
2023/12/10 07:53:16;;;;;;;6.30;1.70;;;10.10;99.90;;;10.53;77.98;100076.09;4874491;28;24531;-65
2023/12/10 07:55:38;;;;;;;9.50;2.20;;;10.10;99.90;;;10.59;76.96;100070.38;4870514;28;24442;-65
2023/12/10 07:58:00;;;;;;;7.65;1.70;;;10.20;99.90;;;10.63;76.97;100067.41;4869861;28;24520;-64
2023/12/10 08:00:22;;;;;;;7.10;1.38;;;10.20;99.90;;;10.67;76.18;100071.44;4880652;28;24423;-65
2023/12/10 08:02:44;;;;;;;5.72;1.50;;;10.30;99.90;;;10.69;76.41;100072.13;4877288;28;24455;-65
2023/12/10 08:05:06;;;;;;;5.10;1.83;;;10.30;99.90;;;10.64;76.31;100074.31;4878285;28;24868;-65
2023/12/10 08:07:28;;;;;;;6.45;2.25;;;10.30;99.90;;;10.57;77.29;100067.91;4871489;28;24470;-63
2023/12/10 08:09:50;;;;;;;7.78;2.00;;;10.30;99.90;;;10.60;77.06;100066.84;4872805;28;25336;-63
2023/12/10 08:12:12;;;;;;;7.83;2.30;;;10.30;99.90;;;10.70;76.73;100079.03;4878047;28;24497;-63
2023/12/10 08:14:44;;;;;;;3.72;1.00;;;10.30;99.90;;;11.02;75.30;100070.31;4873865;28;24459;-64
2023/12/10 08:17:06;;;;;;;9.00;2.17;;;10.60;99.90;;;11.33;72.93;100078.09;4867799;28;24868;-65
2023/12/10 08:19:28;;;;;;;6.15;1.75;;;10.90;99.90;;;11.51;72.97;100067.91;4862514;28;24450;-64
2023/12/10 08:21:50;;;;;;;6.43;1.70;;;11.00;99.90;;;11.67;72.27;100076.94;4873999;28;24509;-65
2023/12/10 08:24:12;;;;;;;7.30;1.70;;;11.20;99.90;;;11.92;70.53;100070.47;4876039;28;24438;-65
2023/12/10 08:26:34;;;;;;;7.00;1.67;;;11.40;99.90;;;12.40;69.77;100076.63;4863838;28;24427;-63
2023/12/10 08:28:56;;;;;;;7.88;1.90;;;11.80;99.90;;;12.73;67.25;100080.69;4873794;28;24543;-65
2023/12/10 08:31:18;;;;;;;4.60;1.50;;;12.10;99.90;;;12.73;67.82;100082.47;4872089;28;24518;-63
2023/12/10 08:33:40;;;;;;;4.10;1.60;;;12.20;99.90;;;12.71;68.27;100092.25;4864652;28;24501;-64
2023/12/10 08:36:03;;;;;;;10.05;2.30;;;12.20;99.90;;;12.60;68.04;100089.75;4874466;28;25012;-64
2023/12/10 08:38:25;;;;;;;7.13;1.98;;;12.20;99.90;;;12.24;69.08;100076.34;4871028;28;24435;-65
2023/12/10 08:40:47;;;;;;;6.57;1.88;;;12.00;99.90;;;12.02;70.12;100087.00;4865339;28;20778;-66
2023/12/10 08:43:09;;;;;;;5.85;1.73;;;11.80;99.90;;;11.89;70.15;100096.00;4873308;28;24427;-65
2023/12/10 08:45:31;;;;;;;8.85;1.83;;;11.60;99.90;;;11.55;71.19;100092.81;4873070;28;24446;-65
2023/12/10 08:47:55;;;;;;;4.55;1.90;;;11.40;99.90;;;11.47;72.07;100085.63;4873174;28;24447;-65
2023/12/10 08:50:17;;;;;;;7.60;1.60;;;11.20;99.90;;;11.33;72.20;100103.41;4872994;28;24455;-65
2023/12/10 08:52:39;;;;;;;7.43;1.98;;;11.10;99.90;;;11.25;72.52;100097.97;4873166;28;24427;-66
2023/12/10 08:55:01;;;;;;;4.80;1.60;;;11.00;99.90;;;11.21;73.69;100096.56;4874751;28;24925;-66
2023/12/10 08:57:24;;;;;;;4.53;1.63;;;10.90;99.90;;;11.21;73.70;100104.41;4872042;28;24439;-64
2023/12/10 08:59:46;;;;;;;5.07;1.50;;;10.90;99.90;;;11.25;73.74;100111.88;4874062;28;24450;-65
2023/12/10 09:02:08;;;;;;;6.32;1.52;;;10.90;99.90;;;11.19;73.19;100121.97;4872939;28;24450;-65
2023/12/10 09:04:30;;;;;;;6.07;1.60;;;10.90;99.90;;;11.21;73.06;100127.91;4869463;28;24809;-65
2023/12/10 09:06:52;;;;;;;5.50;1.90;;;10.90;99.90;;;11.26;73.83;100134.44;4870528;28;24451;-67
2023/12/10 09:09:14;;;;;;;6.75;1.70;;;11.00;99.90;;;11.35;72.77;100138.06;4873206;28;24837;-65
2023/12/10 09:11:36;;;;;;;8.05;1.90;;;11.00;99.90;;;11.47;72.72;100142.25;4869342;28;24845;-65
2023/12/10 09:13:58;;;;;;;4.50;1.75;;;11.10;99.90;;;11.63;72.21;100140.00;4872355;28;24856;-65
2023/12/10 09:16:20;;;;;;;7.07;1.95;;;11.20;99.90;;;11.77;71.32;100139.72;4870878;28;24474;-65
2023/12/10 09:18:43;;;;;;;6.70;1.65;;;11.30;99.90;;;11.97;70.97;100141.47;4872389;28;24470;-65
2023/12/10 09:21:07;;;;;;;5.50;1.60;;;11.50;99.90;;;12.05;70.31;100148.66;4871997;28;20802;-66
2023/12/10 09:23:29;;;;;;;7.20;2.00;;;11.60;99.90;;;12.12;69.98;100142.75;4872496;28;24904;-65
2023/12/10 09:25:51;;;;;;;5.57;1.70;;;11.60;99.90;;;12.31;70.16;100144.63;4880851;28;25249;-64
2023/12/10 09:28:13;;;;;;;8.57;2.00;;;11.80;99.90;;;12.41;69.50;100155.97;4889001;28;24486;-65
2023/12/10 09:30:35;;;;;;;6.00;2.10;;;11.90;99.90;;;12.59;69.41;100150.88;4894499;28;25000;-69
2023/12/10 09:32:58;;;;;;;6.22;2.40;;;12.00;99.90;;;12.69;68.76;100149.94;4885307;28;24438;-65
2023/12/10 09:35:20;;;;;;;5.10;1.60;;;12.20;99.90;;;12.65;68.70;100142.53;4880513;28;24458;-65
2023/12/10 09:37:42;;;;;;;6.40;2.15;;;12.20;99.90;;;12.68;68.47;100152.69;4879665;28;24527;-65
2023/12/10 09:40:05;;;;;;;6.43;1.77;;;12.20;99.90;;;12.78;68.26;100143.91;4865326;28;24479;-65
2023/12/10 09:42:27;;;;;;;6.85;2.42;;;12.30;99.90;;;12.80;68.54;100156.88;4879523;28;24435;-65
2023/12/10 09:44:49;;;;;;;7.57;1.95;;;12.40;99.90;;;12.85;68.90;100152.03;4880901;28;24450;-66
2023/12/10 09:47:11;;;;;;;6.65;1.88;;;12.40;99.90;;;12.90;68.49;100157.72;4880094;28;24438;-66
2023/12/10 09:49:37;;;;;;;7.10;1.80;;;12.40;99.90;;;12.96;68.25;100155.38;4885618;28;24490;-66
2023/12/10 09:51:59;;;;;;;8.33;2.50;;;12.50;99.90;;;12.99;68.52;100143.81;4862186;28;24427;-66
2023/12/10 09:54:22;;;;;;;5.47;1.50;;;12.50;99.90;;;13.07;68.07;100154.44;4860379;28;24530;-66
2023/12/10 09:56:44;;;;;;;9.35;1.90;;;12.60;99.90;;;13.20;67.51;100160.25;4861080;28;24448;-65
2023/12/10 09:59:06;;;;;;;7.50;2.00;;;12.70;99.90;;;13.26;67.61;100166.72;4879374;28;24991;-65